createdAt,value
2022-12-07T00:01:41.674Z,4.28
2022-12-07T00:04:12.641Z,4.26
2022-12-07T00:06:43.744Z,4.32
2022-12-07T00:09:15.033Z,4.12
2022-12-07T00:11:43.740Z,4.17
2022-12-07T00:14:14.493Z,4.33
2022-12-07T00:16:43.712Z,4.23
2022-12-07T00:19:14.411Z,4.04
2022-12-07T00:21:42.525Z,4.17
2022-12-07T00:24:12.031Z,4.30
2022-12-07T00:26:41.683Z,4.30
2022-12-07T00:29:23.410Z,4.34
2022-12-07T00:31:51.374Z,4.34
2022-12-07T00:34:21.611Z,4.31
2022-12-07T00:36:50.184Z,4.28
2022-12-07T00:39:18.105Z,4.33
2022-12-07T00:41:46.022Z,4.32
2022-12-07T00:44:14.420Z,4.25
2022-12-07T00:46:42.318Z,4.27
2022-12-07T00:49:10.242Z,4.29
2022-12-07T00:51:38.116Z,4.22
2022-12-07T00:54:05.974Z,4.29
2022-12-07T00:56:33.882Z,4.21
2022-12-07T00:59:04.214Z,4.24
2022-12-07T01:01:35.361Z,4.25
2022-12-07T01:04:04.074Z,4.33
2022-12-07T01:06:32.077Z,4.34
2022-12-07T01:09:01.018Z,4.29
2022-12-07T01:11:30.682Z,4.29
2022-12-07T01:13:59.958Z,4.31
2022-12-07T01:16:31.145Z,4.25
2022-12-07T01:19:00.598Z,4.17
2022-12-07T01:21:38.436Z,4.17
2022-12-07T01:24:10.524Z,4.27
2022-12-07T01:26:38.618Z,4.22
2022-12-07T01:29:06.541Z,4.24
2022-12-07T01:31:34.985Z,4.22
2022-12-07T01:34:03.338Z,4.10
2022-12-07T01:36:36.505Z,4.04
2022-12-07T01:39:07.607Z,4.13
2022-12-07T01:41:41.152Z,4.20
2022-12-07T01:44:18.467Z,4.14
2022-12-07T01:46:57.844Z,4.29
2022-12-07T01:49:36.131Z,4.08
2022-12-07T01:52:21.058Z,4.21
2022-12-07T01:54:52.451Z,4.24
2022-12-07T01:57:21.831Z,4.22
2022-12-07T01:59:52.467Z,4.23
2022-12-07T02:02:26.246Z,4.19
2022-12-07T02:04:56.939Z,4.14
2022-12-07T02:07:25.408Z,4.22
2022-12-07T02:09:53.274Z,4.27
2022-12-07T02:12:22.192Z,4.23
2022-12-07T02:14:51.882Z,4.24
2022-12-07T02:17:33.300Z,4.14
2022-12-07T02:20:22.804Z,4.27
2022-12-07T02:23:13.897Z,4.10
2022-12-07T02:26:00.462Z,4.15
2022-12-07T02:28:51.335Z,3.95
2022-12-07T02:31:23.422Z,4.24
2022-12-07T02:33:58.678Z,4.27
2022-12-07T02:36:31.695Z,4.17
2022-12-07T02:39:08.171Z,4.15
2022-12-07T02:42:00.710Z,4.05
2022-12-07T02:44:29.824Z,4.26
2022-12-07T02:47:09.167Z,4.00
2022-12-07T02:49:40.030Z,3.92
2022-12-07T02:52:09.084Z,4.19
2022-12-07T02:54:37.186Z,4.23
2022-12-07T02:57:58.999Z,4.02
2022-12-07T03:00:27.319Z,4.10
2022-12-07T03:03:02.035Z,4.23
2022-12-07T03:06:05.427Z,4.15
2022-12-07T03:09:14.545Z,3.97
2022-12-07T03:11:49.989Z,4.06
2022-12-07T03:14:24.385Z,4.05
2022-12-07T03:17:02.716Z,4.28
2022-12-07T03:19:33.720Z,4.24
2022-12-07T03:22:05.007Z,4.10
2022-12-07T03:24:48.573Z,4.03
2022-12-07T03:27:26.901Z,4.16
2022-12-07T03:30:08.140Z,4.22
2022-12-07T03:32:46.603Z,4.17
2022-12-07T03:35:30.441Z,4.06
2022-12-07T03:38:01.764Z,4.18
2022-12-07T03:40:42.299Z,3.86
2022-12-07T03:43:10.512Z,3.95
2022-12-07T03:45:44.984Z,4.06
2022-12-07T03:48:41.860Z,4.00
2022-12-07T03:51:20.195Z,3.88
2022-12-07T03:53:57.886Z,3.86
2022-12-07T03:56:28.577Z,4.05
2022-12-07T03:58:56.553Z,4.05
2022-12-07T04:01:25.247Z,4.15
2022-12-07T04:03:53.246Z,3.98
2022-12-07T04:06:21.170Z,4.02
2022-12-07T04:08:49.042Z,3.73
2022-12-07T04:11:17.003Z,3.78
2022-12-07T04:14:03.438Z,4.08
2022-12-07T04:16:31.428Z,3.92
2022-12-07T04:19:00.037Z,3.84
2022-12-07T04:21:27.967Z,3.83
2022-12-07T04:23:55.786Z,3.74
2022-12-07T04:26:23.712Z,3.88
2022-12-07T04:28:51.649Z,3.66
2022-12-07T04:31:19.782Z,3.73
2022-12-07T04:33:47.717Z,3.94
2022-12-07T04:36:15.706Z,3.91
2022-12-07T04:38:43.645Z,4.06
2022-12-07T04:41:11.517Z,3.75
2022-12-07T04:43:39.368Z,4.01
2022-12-07T04:46:27.441Z,3.90
2022-12-07T04:49:15.215Z,3.81
2022-12-07T04:52:01.972Z,3.94
2022-12-07T04:54:29.868Z,3.69
2022-12-07T04:56:57.857Z,3.90
2022-12-07T04:59:25.776Z,3.66
2022-12-07T05:01:53.838Z,3.92
2022-12-07T05:04:21.800Z,3.68
2022-12-07T05:06:49.669Z,3.83
2022-12-07T05:09:17.522Z,3.73
2022-12-07T05:11:45.392Z,3.77
2022-12-07T05:14:21.417Z,3.71
2022-12-07T05:16:51.560Z,3.89
2022-12-07T05:19:19.921Z,3.90
2022-12-07T05:21:48.532Z,3.52
2022-12-07T05:24:17.437Z,3.91
2022-12-07T05:26:46.333Z,3.71
2022-12-07T05:29:16.166Z,3.84
2022-12-07T05:31:45.171Z,3.51
2022-12-07T05:34:13.944Z,3.82
2022-12-07T05:36:41.958Z,3.98
2022-12-07T05:39:09.899Z,3.88
2022-12-07T05:41:56.543Z,3.88
2022-12-07T05:44:25.320Z,4.00
2022-12-07T05:46:53.685Z,3.72
2022-12-07T05:49:21.791Z,3.78
2022-12-07T05:51:49.762Z,3.50
2022-12-07T05:54:17.801Z,4.00
2022-12-07T05:56:45.718Z,3.76
2022-12-07T05:59:25.976Z,3.78
2022-12-07T06:02:11.516Z,3.74
2022-12-07T06:04:45.387Z,3.52
2022-12-07T06:07:15.708Z,3.59
2022-12-07T06:09:44.389Z,3.63
2022-12-07T06:12:32.013Z,3.63
2022-12-07T06:15:17.977Z,3.88
2022-12-07T06:17:46.046Z,3.80
2022-12-07T06:20:14.327Z,3.81
2022-12-07T06:22:42.329Z,3.66
2022-12-07T06:25:10.923Z,3.78
2022-12-07T06:27:38.886Z,3.82
2022-12-07T06:30:07.780Z,3.78
2022-12-07T06:32:38.187Z,3.72
2022-12-07T06:35:06.376Z,3.82
2022-12-07T06:37:34.293Z,3.81
2022-12-07T06:40:02.957Z,3.96
2022-12-07T06:42:31.257Z,3.98
2022-12-07T06:44:59.286Z,3.81
2022-12-07T06:47:45.464Z,3.90
2022-12-07T06:50:15.167Z,4.06
2022-12-07T06:52:43.095Z,3.75
2022-12-07T06:55:11.002Z,3.98
2022-12-07T06:57:38.937Z,3.73
2022-12-07T07:00:07.697Z,3.75
2022-12-07T07:02:35.812Z,4.02
2022-12-07T07:05:04.575Z,3.71
2022-12-07T07:07:41.621Z,3.96
2022-12-07T07:10:20.049Z,3.97
2022-12-07T07:12:51.830Z,3.77
2022-12-07T07:15:22.212Z,3.69
2022-12-07T07:17:50.123Z,3.66
2022-12-07T07:20:18.411Z,3.93
2022-12-07T07:22:46.591Z,3.95
2022-12-07T07:25:14.711Z,3.88
2022-12-07T07:27:42.907Z,3.96
2022-12-07T07:30:11.211Z,4.11
2022-12-07T07:32:39.281Z,3.94
2022-12-07T07:35:07.596Z,4.00
2022-12-07T07:37:35.636Z,3.84
2022-12-07T07:40:03.986Z,4.00
2022-12-07T07:42:32.112Z,4.16
2022-12-07T07:45:00.141Z,3.90
2022-12-07T07:47:28.084Z,3.97
2022-12-07T07:49:56.074Z,4.22
2022-12-07T07:52:24.104Z,4.15
2022-12-07T07:54:52.175Z,4.23
2022-12-07T07:57:20.169Z,4.02
2022-12-07T07:59:48.245Z,4.16
2022-12-07T08:02:19.302Z,4.03
2022-12-07T08:04:47.713Z,4.15
2022-12-07T08:07:16.788Z,4.24
2022-12-07T08:09:44.779Z,4.06
2022-12-07T08:12:12.846Z,4.20
2022-12-07T08:14:40.892Z,3.93
2022-12-07T08:17:09.009Z,3.98
2022-12-07T08:19:36.950Z,4.11
2022-12-07T08:22:04.985Z,3.90
2022-12-07T08:24:36.426Z,4.18
2022-12-07T08:27:04.671Z,4.22
2022-12-07T08:29:32.610Z,4.13
2022-12-07T08:32:07.990Z,4.06
2022-12-07T08:34:38.120Z,4.49
2022-12-07T08:37:06.222Z,4.32
2022-12-07T08:39:34.309Z,4.53
2022-12-07T08:42:02.278Z,4.43
2022-12-07T08:44:31.850Z,4.21
2022-12-07T08:47:04.119Z,4.24
2022-12-07T08:49:37.517Z,4.32
2022-12-07T08:52:06.334Z,4.33
2022-12-07T08:54:38.194Z,4.08
2022-12-07T08:57:07.274Z,4.02
2022-12-07T08:59:38.122Z,4.15
2022-12-07T09:02:06.569Z,4.47
2022-12-07T09:04:34.655Z,4.20
2022-12-07T09:07:03.170Z,4.17
2022-12-07T09:09:31.167Z,4.15
2022-12-07T09:11:59.232Z,4.30
2022-12-07T09:14:27.148Z,4.23
2022-12-07T09:16:55.227Z,4.13
2022-12-07T09:19:23.289Z,4.55
2022-12-07T09:21:51.441Z,4.27
2022-12-07T09:24:19.401Z,4.16
2022-12-07T09:26:47.317Z,4.06
2022-12-07T09:29:15.234Z,4.49
2022-12-07T09:31:43.174Z,4.28
2022-12-07T09:34:11.395Z,4.15
2022-12-07T09:36:39.509Z,4.64
2022-12-07T09:39:08.557Z,3.98
2022-12-07T09:41:40.920Z,4.11
2022-12-07T09:44:15.353Z,3.91
2022-12-07T09:46:44.526Z,4.30
2022-12-07T09:49:22.058Z,4.11
2022-12-07T09:52:03.688Z,4.36
2022-12-07T09:54:32.627Z,4.23
2022-12-07T09:57:00.718Z,4.27
2022-12-07T09:59:32.363Z,4.21
2022-12-07T10:02:26.118Z,4.25
2022-12-07T10:04:54.459Z,4.29
2022-12-07T10:07:23.524Z,4.62
2022-12-07T10:09:51.934Z,5.03
2022-12-07T10:12:19.826Z,5.16
2022-12-07T10:15:08.027Z,4.80
2022-12-07T10:17:42.029Z,5.14
2022-12-07T10:20:13.193Z,4.56
2022-12-07T10:22:56.377Z,4.35
2022-12-07T10:25:28.424Z,4.22
2022-12-07T10:28:08.476Z,4.77
2022-12-07T10:30:49.118Z,4.85
2022-12-07T10:33:30.445Z,4.91
2022-12-07T10:35:58.993Z,4.58
2022-12-07T10:38:29.194Z,4.88
2022-12-07T10:41:06.181Z,4.06
2022-12-07T10:43:34.686Z,4.74
2022-12-07T10:46:31.971Z,4.81
2022-12-07T10:49:28.532Z,4.90
2022-12-07T10:52:14.443Z,4.86
2022-12-07T10:54:42.320Z,4.37
2022-12-07T10:57:24.766Z,4.59
2022-12-07T11:00:23.976Z,4.61
2022-12-07T11:03:10.346Z,4.73
2022-12-07T11:05:41.991Z,4.78
2022-12-07T11:08:19.510Z,4.85
2022-12-07T11:11:08.069Z,4.91
2022-12-07T11:13:35.950Z,4.83
2022-12-07T11:16:21.216Z,5.41
2022-12-07T11:19:04.203Z,5.62
2022-12-07T11:21:56.653Z,5.89
2022-12-07T11:25:04.789Z,5.97
2022-12-07T11:27:45.886Z,5.72
2022-12-07T11:30:17.203Z,5.16
2022-12-07T11:32:59.928Z,5.35
2022-12-07T11:35:45.987Z,5.48
2022-12-07T11:38:44.321Z,5.60
2022-12-07T11:41:14.450Z,5.45
2022-12-07T11:43:57.613Z,5.05
2022-12-07T11:46:30.122Z,4.65
2022-12-07T11:49:38.108Z,5.13
2022-12-07T11:52:18.831Z,5.60
2022-12-07T11:54:49.560Z,5.62
2022-12-07T11:57:26.079Z,5.63
2022-12-07T12:00:01.026Z,5.42
2022-12-07T12:02:58.909Z,5.73
2022-12-07T12:05:27.130Z,5.40
2022-12-07T12:11:19.310Z,5.76
2022-12-07T12:16:56.627Z,5.64
2022-12-07T12:19:39.470Z,5.57
2022-12-07T12:22:18.925Z,5.27
2022-12-07T12:24:53.263Z,5.91
2022-12-07T12:27:39.624Z,6.06
2022-12-07T12:30:27.621Z,5.66
2022-12-07T12:33:04.563Z,6.21
2022-12-07T12:35:35.814Z,6.01
2022-12-07T12:38:28.083Z,6.26
2022-12-07T12:40:56.978Z,5.52
2022-12-07T12:43:50.095Z,5.82
2022-12-07T12:46:30.316Z,5.70
2022-12-07T12:49:21.421Z,5.44
2022-12-07T12:51:52.020Z,5.69
2022-12-07T12:54:24.565Z,5.47
2022-12-07T12:57:01.550Z,5.83
2022-12-07T12:59:31.725Z,5.86
2022-12-07T13:02:02.665Z,5.61
2022-12-07T13:05:00.159Z,5.72
2022-12-07T13:07:47.797Z,5.82
2022-12-07T13:10:22.015Z,6.04
2022-12-07T13:13:13.315Z,5.50
2022-12-07T13:15:56.038Z,5.74
2022-12-07T13:18:33.123Z,5.71
2022-12-07T13:21:10.339Z,5.78
2022-12-07T13:23:44.548Z,5.67
2022-12-07T13:26:25.362Z,5.62
2022-12-07T13:29:11.407Z,5.76
2022-12-07T13:31:47.100Z,5.63
2022-12-07T13:34:37.660Z,5.67
2022-12-07T13:37:11.446Z,5.01
2022-12-07T13:39:54.521Z,5.44
2022-12-07T13:42:34.502Z,5.49
2022-12-07T13:45:23.462Z,5.28
2022-12-07T13:47:58.425Z,5.37
2022-12-07T13:50:30.071Z,5.20
2022-12-07T13:53:02.468Z,5.43
2022-12-07T13:55:30.726Z,5.36
2022-12-07T13:57:59.049Z,5.49
2022-12-07T14:00:29.778Z,5.36
2022-12-07T14:03:14.021Z,5.33
2022-12-07T14:05:43.971Z,5.46
2022-12-07T14:08:11.919Z,5.49
2022-12-07T14:10:43.668Z,5.37
2022-12-07T14:13:24.040Z,5.34
2022-12-07T14:15:53.170Z,5.43
2022-12-07T14:18:50.170Z,4.99
2022-12-07T14:21:20.709Z,5.07
2022-12-07T14:24:32.579Z,4.82
2022-12-07T14:27:00.476Z,5.21
2022-12-07T14:29:29.174Z,4.94
2022-12-07T14:31:59.991Z,5.31
2022-12-07T14:34:27.954Z,5.34
2022-12-07T14:36:55.885Z,5.20
2022-12-07T14:39:23.778Z,5.34
2022-12-07T14:41:51.750Z,5.33
2022-12-07T14:44:24.774Z,5.31
2022-12-07T14:49:42.330Z,5.06
2022-12-07T14:55:24.021Z,5.08
2022-12-07T14:57:52.050Z,5.10
2022-12-07T15:00:21.549Z,5.17
2022-12-07T15:02:50.923Z,5.04
2022-12-07T15:05:19.632Z,5.12
2022-12-07T15:07:49.218Z,5.00
2022-12-07T15:10:24.246Z,5.09
2022-12-07T15:12:52.605Z,5.05
2022-12-07T15:15:21.102Z,5.20
2022-12-07T15:17:48.971Z,5.05
2022-12-07T15:20:17.979Z,5.09
2022-12-07T15:22:45.918Z,5.04
2022-12-07T15:25:15.214Z,5.07
2022-12-07T15:27:43.195Z,4.88
2022-12-07T15:30:11.382Z,4.98
2022-12-07T15:32:39.359Z,4.92
2022-12-07T15:35:07.762Z,4.75
2022-12-07T15:37:35.737Z,4.81
2022-12-07T15:40:07.752Z,4.68
2022-12-07T15:42:37.278Z,4.62
2022-12-07T15:45:07.968Z,4.61
2022-12-07T15:50:26.720Z,4.62
2022-12-07T15:52:55.156Z,4.64
2022-12-07T15:55:23.032Z,4.61
2022-12-07T15:57:50.917Z,4.62
2022-12-07T16:00:19.472Z,4.66
2022-12-07T16:02:47.373Z,4.56
2022-12-07T16:05:15.313Z,4.59
2022-12-07T16:07:43.266Z,4.54
2022-12-07T16:10:11.325Z,4.43
2022-12-07T16:12:39.264Z,4.52
2022-12-07T16:15:07.945Z,4.51
2022-12-07T16:17:36.077Z,4.56
2022-12-07T16:20:05.151Z,4.43
2022-12-07T16:22:33.068Z,4.50
2022-12-07T16:25:01.331Z,4.45
2022-12-07T16:27:29.529Z,4.43
2022-12-07T16:29:57.477Z,4.58
2022-12-07T16:32:25.365Z,4.40
2022-12-07T16:34:53.250Z,4.52
2022-12-07T16:37:21.152Z,4.35
2022-12-07T16:39:49.000Z,4.38
2022-12-07T16:42:16.916Z,4.52
2022-12-07T16:44:44.840Z,4.55
2022-12-07T16:47:12.901Z,4.38
2022-12-07T16:49:40.823Z,4.40
2022-12-07T16:52:19.758Z,4.44
2022-12-07T16:54:49.529Z,4.33
2022-12-07T16:57:22.569Z,4.29
2022-12-07T16:59:52.752Z,4.33
2022-12-07T17:02:21.044Z,4.24
2022-12-07T17:04:48.924Z,4.28
2022-12-07T17:07:16.855Z,4.38
2022-12-07T17:09:44.797Z,4.22
2022-12-07T17:12:13.179Z,4.27
2022-12-07T17:14:59.646Z,4.22
2022-12-07T17:17:28.475Z,4.10
2022-12-07T17:19:56.612Z,3.97
2022-12-07T17:22:24.624Z,4.19
2022-12-07T17:24:52.493Z,4.05
2022-12-07T17:27:20.365Z,4.11
2022-12-07T17:29:48.258Z,4.23
2022-12-07T17:32:16.230Z,4.22
2022-12-07T17:34:44.156Z,4.13
2022-12-07T17:37:12.064Z,4.12
2022-12-07T17:39:40.122Z,4.24
2022-12-07T17:42:27.593Z,3.98
2022-12-07T17:44:55.755Z,4.11
2022-12-07T17:47:23.635Z,3.96
2022-12-07T17:49:51.594Z,4.01
2022-12-07T17:52:38.303Z,4.04
2022-12-07T17:55:06.765Z,4.11
2022-12-07T17:57:34.855Z,4.11
2022-12-07T18:00:04.670Z,4.05
2022-12-07T18:02:39.768Z,4.07
2022-12-07T18:05:08.037Z,4.05
2022-12-07T18:07:36.040Z,4.10
2022-12-07T18:10:07.434Z,4.15
2022-12-07T18:12:35.486Z,4.03
2022-12-07T18:15:04.402Z,4.04
2022-12-07T18:17:32.908Z,4.10
2022-12-07T18:20:01.528Z,4.03
2022-12-07T18:22:29.457Z,4.02
2022-12-07T18:24:57.364Z,4.04
2022-12-07T18:27:25.297Z,3.96
2022-12-07T18:29:54.194Z,4.20
2022-12-07T18:32:22.368Z,4.05
2022-12-07T18:34:50.378Z,4.15
2022-12-07T18:37:18.260Z,4.12
2022-12-07T18:39:46.200Z,4.17
2022-12-07T18:42:14.101Z,4.09
2022-12-07T18:44:42.007Z,4.14
2022-12-07T18:47:10.076Z,4.08
2022-12-07T18:49:39.080Z,4.13
2022-12-07T18:52:07.137Z,4.13
2022-12-07T18:54:35.061Z,4.06
2022-12-07T18:57:02.970Z,4.01
2022-12-07T18:59:49.883Z,4.09
2022-12-07T19:02:19.273Z,4.13
2022-12-07T19:04:47.284Z,4.16
2022-12-07T19:07:15.201Z,4.12
2022-12-07T19:09:43.282Z,4.14
2022-12-07T19:12:13.456Z,4.02
2022-12-07T19:14:41.385Z,3.97
2022-12-07T19:17:12.637Z,4.01
2022-12-07T19:19:47.859Z,4.02
2022-12-07T19:22:18.858Z,4.11
2022-12-07T19:24:49.787Z,4.11
2022-12-07T19:27:18.636Z,4.14
2022-12-07T19:29:47.783Z,4.08
2022-12-07T19:32:16.938Z,4.03
2022-12-07T19:34:46.368Z,4.00
2022-12-07T19:37:14.641Z,4.06
2022-12-07T19:39:43.828Z,4.16
2022-12-07T19:42:12.075Z,4.07
2022-12-07T19:44:39.998Z,4.15
2022-12-07T19:47:08.103Z,4.14
2022-12-07T19:49:36.656Z,4.15
2022-12-07T19:52:06.924Z,4.17
2022-12-07T19:54:35.817Z,4.05
2022-12-07T19:57:05.762Z,4.15
2022-12-07T19:59:34.634Z,4.17
2022-12-07T20:02:02.829Z,4.12
2022-12-07T20:04:35.364Z,3.98
2022-12-07T20:07:03.421Z,4.07
2022-12-07T20:09:31.593Z,3.96
2022-12-07T20:12:18.194Z,3.95
2022-12-07T20:14:46.132Z,3.99
2022-12-07T20:17:14.232Z,3.93
2022-12-07T20:19:42.172Z,3.91
2022-12-07T20:22:10.132Z,3.93
2022-12-07T20:24:38.553Z,3.93
2022-12-07T20:27:06.640Z,3.89
2022-12-07T20:29:35.171Z,3.75
2022-12-07T20:32:03.430Z,3.93
2022-12-07T20:34:31.784Z,3.99
2022-12-07T20:36:59.690Z,3.89
2022-12-07T20:39:27.620Z,3.94
2022-12-07T20:42:14.063Z,4.00
2022-12-07T20:44:41.940Z,3.98
2022-12-07T20:47:09.925Z,3.99
2022-12-07T20:49:37.819Z,3.97
2022-12-07T20:52:05.751Z,3.84
2022-12-07T20:54:33.700Z,3.88
2022-12-07T20:57:01.631Z,3.74
2022-12-07T20:59:29.521Z,3.73
2022-12-07T21:01:57.496Z,3.87
2022-12-07T21:04:25.447Z,3.85
2022-12-07T21:06:53.555Z,3.87
2022-12-07T21:09:26.741Z,3.91
2022-12-07T21:11:55.146Z,3.78
2022-12-07T21:14:23.402Z,3.80
2022-12-07T21:16:51.474Z,3.71
2022-12-07T21:19:19.407Z,3.82
2022-12-07T21:21:47.388Z,3.83
2022-12-07T21:24:15.467Z,3.80
2022-12-07T21:26:43.685Z,3.74
2022-12-07T21:29:11.561Z,3.58
2022-12-07T21:31:39.520Z,3.72
2022-12-07T21:34:08.107Z,3.63
2022-12-07T21:36:36.142Z,3.62
2022-12-07T21:39:05.327Z,3.61
2022-12-07T21:41:35.568Z,3.60
2022-12-07T21:44:07.732Z,3.79
2022-12-07T21:46:35.788Z,3.76
2022-12-07T21:49:08.860Z,3.60
2022-12-07T21:51:36.942Z,3.56
2022-12-07T21:54:06.050Z,3.59
2022-12-07T21:56:42.297Z,3.60
2022-12-07T21:59:15.519Z,3.69
2022-12-07T22:01:47.332Z,3.72
2022-12-07T22:04:23.617Z,3.65
2022-12-07T22:06:53.431Z,3.65
2022-12-07T22:09:24.219Z,3.60
2022-12-07T22:11:52.121Z,3.77
2022-12-07T22:14:38.906Z,3.54
2022-12-07T22:17:06.899Z,3.50
2022-12-07T22:19:35.191Z,3.59
2022-12-07T22:22:03.119Z,3.50
2022-12-07T22:24:31.128Z,3.48
2022-12-07T22:26:59.449Z,3.58
2022-12-07T22:29:27.451Z,3.29
2022-12-07T22:31:55.535Z,3.40
2022-12-07T22:34:23.487Z,3.51
2022-12-07T22:36:51.407Z,3.55
2022-12-07T22:39:19.329Z,3.37
2022-12-07T22:41:47.228Z,3.41
2022-12-07T22:44:15.177Z,3.47
2022-12-07T22:46:43.088Z,3.41
2022-12-07T22:49:11.119Z,3.43
2022-12-07T22:51:41.715Z,3.50
2022-12-07T22:54:16.105Z,3.44
2022-12-07T22:56:45.366Z,3.47
2022-12-07T22:59:14.068Z,3.43
2022-12-07T23:01:42.398Z,3.48
2022-12-07T23:04:10.393Z,3.47
2022-12-07T23:06:38.486Z,3.31
2022-12-07T23:09:09.975Z,3.36
2022-12-07T23:11:59.047Z,3.37
2022-12-07T23:14:31.002Z,3.48
2022-12-07T23:16:59.107Z,3.23
2022-12-07T23:19:27.434Z,3.21
2022-12-07T23:21:55.465Z,3.26
2022-12-07T23:24:23.360Z,3.35
2022-12-07T23:26:52.437Z,3.44
2022-12-07T23:29:20.533Z,3.30
2022-12-07T23:31:50.048Z,3.35
2022-12-07T23:34:18.056Z,3.37
2022-12-07T23:36:45.989Z,3.36
2022-12-07T23:39:13.967Z,3.46
2022-12-07T23:41:41.919Z,3.41
2022-12-07T23:44:10.801Z,3.40
2022-12-07T23:46:39.029Z,3.32
2022-12-07T23:49:07.525Z,3.16
2022-12-07T23:51:35.500Z,3.41
2022-12-07T23:54:03.610Z,3.25
2022-12-07T23:56:34.099Z,3.32
2022-12-07T23:59:03.476Z,3.27
